BAW659 EGLL-LGKF
Flight info
| Callsign | BAW659 |
|---|---|
| Flight time | N/A |
| Altitude | 37000 |
| Route | DET1J DET L6 DVR UL9 KONAN DCT KOK DCT SISGA DCT KOMOB DCT EDISA DCT PICWI DCT UTABA DCT BEMKI DCT ELMEM DCT DIRAB DCT RASUG DCT OKLAX DCT SIPAL DCT RODON DCT LIMJA DCT PITAS/N0445F330 UN732 KRK UT321 ASTUS ASTUS1N |
| Aircraft | A320/M-SDE3FGIJ1KRWXY/SB1 |
Departure
| Time | 2026-05-08 00:38 |
|---|---|
| Airport | London Heathrow Airport (EGLL) |
Arrival
| Time | N/A |
|---|---|
| Airport | Kefallinia Airport (LGKF) |
| Time | Latitude | Longitude | Altitude | Speed | Heading |
|---|---|---|---|---|---|
| 2026-05-08 00:22 | 51.47271 | -0.48581 | 87 ft | 0 kts | 270° |
| 2026-05-08 00:32 | 51.47271 | -0.48574 | 85 ft | 2 kts | 269° |
| 2026-05-08 00:32 | 51.47272 | -0.48544 | 88 ft | 3 kts | 261° |
| 2026-05-08 00:32 | 51.47276 | -0.48513 | 88 ft | 3 kts | 246° |
| 2026-05-08 00:32 | 51.47286 | -0.48487 | 89 ft | 3 kts | 216° |
| 2026-05-08 00:33 | 51.47299 | -0.48477 | 88 ft | 1 kts | 179° |
| 2026-05-08 00:33 | 51.47300 | -0.48477 | 88 ft | 0 kts | 178° |
| 2026-05-08 00:34 | 51.47299 | -0.48477 | 88 ft | 1 kts | 178° |
| 2026-05-08 00:35 | 51.47283 | -0.48476 | 88 ft | 4 kts | 178° |
| 2026-05-08 00:35 | 51.47250 | -0.48474 | 89 ft | 6 kts | 178° |
| 2026-05-08 00:35 | 51.47199 | -0.48471 | 87 ft | 9 kts | 178° |
| 2026-05-08 00:35 | 51.47129 | -0.48472 | 86 ft | 11 kts | 180° |
| 2026-05-08 00:36 | 51.47040 | -0.48473 | 85 ft | 14 kts | 180° |
| 2026-05-08 00:36 | 51.46931 | -0.48474 | 85 ft | 17 kts | 179° |
| 2026-05-08 00:36 | 51.46805 | -0.48469 | 86 ft | 19 kts | 179° |
| 2026-05-08 00:36 | 51.46662 | -0.48464 | 88 ft | 20 kts | 179° |
| 2026-05-08 00:37 | 51.46517 | -0.48455 | 88 ft | 22 kts | 164° |
| 2026-05-08 00:37 | 51.46480 | -0.48236 | 87 ft | 24 kts | 89° |
| 2026-05-08 00:37 | 51.46479 | -0.47721 | 82 ft | 78 kts | 89° |
| 2026-05-08 00:38 | 51.46480 | -0.44827 | 145 ft | 169 kts | 92° |
| 2026-05-08 00:38 | 51.46464 | -0.42980 | 819 ft | 164 kts | 90° |
| 2026-05-08 00:38 | 51.46220 | -0.41210 | 1461 ft | 168 kts | 124° |
| 2026-05-08 00:38 | 51.45492 | -0.39616 | 1782 ft | 188 kts | 124° |
| 2026-05-08 00:39 | 51.44754 | -0.37727 | 2056 ft | 212 kts | 122° |
| 2026-05-08 00:39 | 51.43977 | -0.35550 | 2464 ft | 237 kts | 116° |
| 2026-05-08 00:39 | 51.43435 | -0.33008 | 3187 ft | 249 kts | 103° |
| 2026-05-08 00:39 | 51.43056 | -0.30280 | 4120 ft | 253 kts | 103° |
| 2026-05-08 00:40 | 51.42659 | -0.27513 | 5063 ft | 257 kts | 103° |
| 2026-05-08 00:40 | 51.42264 | -0.24694 | 5939 ft | 262 kts | 102° |
| 2026-05-08 00:40 | 51.41868 | -0.21801 | 6768 ft | 268 kts | 102° |
| 2026-05-08 00:40 | 51.41468 | -0.18842 | 7527 ft | 276 kts | 103° |
| 2026-05-08 00:41 | 51.41054 | -0.15798 | 8286 ft | 283 kts | 103° |
| 2026-05-08 00:41 | 51.40625 | -0.12666 | 9041 ft | 291 kts | 104° |
| 2026-05-08 00:41 | 51.40182 | -0.09461 | 9790 ft | 298 kts | 104° |
| 2026-05-08 00:41 | 51.39725 | -0.06163 | 10341 ft | 312 kts | 104° |
| 2026-05-08 00:42 | 51.39233 | -0.02643 | 10569 ft | 336 kts | 104° |
| 2026-05-08 00:42 | 51.38705 | 0.01107 | 10933 ft | 351 kts | 104° |
| 2026-05-08 00:42 | 51.38165 | 0.04951 | 11590 ft | 356 kts | 104° |
| 2026-05-08 00:42 | 51.37624 | 0.08835 | 12320 ft | 359 kts | 104° |
| 2026-05-08 00:43 | 51.37088 | 0.12699 | 13039 ft | 361 kts | 104° |
| 2026-05-08 00:43 | 51.36539 | 0.16646 | 13771 ft | 364 kts | 104° |
| 2026-05-08 00:43 | 51.35984 | 0.20608 | 14421 ft | 366 kts | 104° |
| 2026-05-08 00:43 | 51.35421 | 0.24604 | 15042 ft | 369 kts | 104° |
| 2026-05-08 00:44 | 51.34850 | 0.28617 | 15661 ft | 372 kts | 105° |
| 2026-05-08 00:44 | 51.34271 | 0.32672 | 16244 ft | 375 kts | 105° |
| 2026-05-08 00:44 | 51.33690 | 0.36757 | 16855 ft | 378 kts | 104° |
| 2026-05-08 00:44 | 51.33111 | 0.40828 | 17442 ft | 381 kts | 105° |
| 2026-05-08 00:45 | 51.32520 | 0.44971 | 17866 ft | 384 kts | 105° |
| 2026-05-08 00:45 | 51.31922 | 0.49159 | 18427 ft | 387 kts | 104° |
| 2026-05-08 00:45 | 51.31316 | 0.53387 | 18941 ft | 391 kts | 105° |
| 2026-05-08 00:45 | 51.30702 | 0.57644 | 19488 ft | 394 kts | 105° |
| 2026-05-08 00:46 | 51.30060 | 0.61910 | 20043 ft | 397 kts | 106° |
| 2026-05-08 00:46 | 51.29331 | 0.66184 | 20585 ft | 399 kts | 108° |
| 2026-05-08 00:46 | 51.28545 | 0.70445 | 21101 ft | 402 kts | 109° |
| 2026-05-08 00:46 | 51.27728 | 0.74726 | 21622 ft | 404 kts | 109° |
| 2026-05-08 00:47 | 51.26914 | 0.78989 | 22127 ft | 407 kts | 109° |
| 2026-05-08 00:47 | 51.26090 | 0.83331 | 22625 ft | 410 kts | 109° |
| 2026-05-08 00:47 | 51.25267 | 0.87711 | 23126 ft | 412 kts | 109° |
| 2026-05-08 00:47 | 51.24448 | 0.92113 | 23628 ft | 415 kts | 109° |
| 2026-05-08 00:48 | 51.23624 | 0.96562 | 24037 ft | 418 kts | 108° |
| 2026-05-08 00:48 | 51.23078 | 0.99521 | 24286 ft | 420 kts | 108° |
| 2026-05-08 00:48 | 51.22248 | 1.04010 | 24673 ft | 423 kts | 108° |
| 2026-05-08 00:48 | 51.21410 | 1.08531 | 25063 ft | 425 kts | 108° |
| 2026-05-08 00:49 | 51.20288 | 1.14546 | 25579 ft | 428 kts | 109° |
| 2026-05-08 00:49 | 51.19719 | 1.17584 | 25839 ft | 430 kts | 109° |
| 2026-05-08 00:49 | 51.18855 | 1.22185 | 26216 ft | 432 kts | 109° |
| 2026-05-08 00:49 | 51.17994 | 1.26746 | 26582 ft | 435 kts | 109° |
| 2026-05-08 00:50 | 51.17120 | 1.31364 | 26952 ft | 437 kts | 109° |
| 2026-05-08 00:50 | 51.16357 | 1.36079 | 27321 ft | 441 kts | 102° |
| 2026-05-08 00:50 | 51.16009 | 1.40978 | 27690 ft | 445 kts | 96° |
| 2026-05-08 00:50 | 51.15787 | 1.45850 | 28047 ft | 447 kts | 96° |
| 2026-05-08 00:51 | 51.15558 | 1.50816 | 28423 ft | 450 kts | 96° |
| 2026-05-08 00:51 | 51.15319 | 1.55808 | 28784 ft | 452 kts | 96° |
| 2026-05-08 00:51 | 51.15073 | 1.60826 | 29141 ft | 455 kts | 96° |
| 2026-05-08 00:51 | 51.14823 | 1.65862 | 29496 ft | 457 kts | 96° |
| 2026-05-08 00:52 | 51.14571 | 1.70925 | 29837 ft | 460 kts | 96° |
| 2026-05-08 00:52 | 51.14318 | 1.76006 | 30221 ft | 461 kts | 96° |
| 2026-05-08 00:52 | 51.14062 | 1.81100 | 30658 ft | 460 kts | 96° |
| 2026-05-08 00:52 | 51.13804 | 1.86169 | 31094 ft | 458 kts | 96° |
| 2026-05-08 00:53 | 51.13546 | 1.91156 | 31502 ft | 458 kts | 96° |
| 2026-05-08 00:53 | 51.13282 | 1.96204 | 31905 ft | 458 kts | 96° |
| 2026-05-08 00:53 | 51.13016 | 2.01261 | 32331 ft | 457 kts | 96° |
| 2026-05-08 00:53 | 51.12746 | 2.06304 | 32782 ft | 457 kts | 96° |
| 2026-05-08 00:54 | 51.12476 | 2.11339 | 33205 ft | 456 kts | 96° |
| 2026-05-08 00:54 | 51.12207 | 2.16372 | 33654 ft | 455 kts | 97° |
| 2026-05-08 00:54 | 51.11936 | 2.21388 | 34090 ft | 454 kts | 97° |
| 2026-05-08 00:54 | 51.11662 | 2.26403 | 34459 ft | 454 kts | 97° |
| 2026-05-08 00:55 | 51.11387 | 2.31403 | 34780 ft | 454 kts | 97° |
| 2026-05-08 00:55 | 51.11113 | 2.36386 | 35091 ft | 454 kts | 97° |
| 2026-05-08 00:55 | 51.10838 | 2.41330 | 35365 ft | 455 kts | 97° |
| 2026-05-08 00:55 | 51.10557 | 2.46353 | 35647 ft | 456 kts | 97° |
| 2026-05-08 00:56 | 51.10270 | 2.51393 | 35940 ft | 456 kts | 97° |
| 2026-05-08 00:56 | 51.09980 | 2.56430 | 36229 ft | 456 kts | 97° |
| 2026-05-08 00:56 | 51.09621 | 2.61443 | 36502 ft | 455 kts | 102° |
| 2026-05-08 00:56 | 51.08833 | 2.66303 | 36770 ft | 453 kts | 112° |
| 2026-05-08 00:57 | 51.07590 | 2.70885 | 37027 ft | 451 kts | 120° |
| 2026-05-08 00:57 | 51.04647 | 2.79718 | 37097 ft | 457 kts | 120° |
| 2026-05-08 00:58 | 51.01673 | 2.88673 | 37089 ft | 459 kts | 120° |
| 2026-05-08 00:58 | 50.98689 | 2.97636 | 37089 ft | 459 kts | 120° |
| 2026-05-08 00:59 | 50.95689 | 3.06610 | 37089 ft | 459 kts | 120° |
| 2026-05-08 00:59 | 50.92705 | 3.15508 | 37094 ft | 459 kts | 120° |
| 2026-05-08 01:00 | 50.89691 | 3.24456 | 37091 ft | 459 kts | 121° |
| 2026-05-08 01:00 | 50.86666 | 3.33382 | 37082 ft | 460 kts | 121° |
| 2026-05-08 01:01 | 50.83631 | 3.42305 | 37086 ft | 460 kts | 121° |
| 2026-05-08 01:01 | 50.80610 | 3.51163 | 37081 ft | 460 kts | 121° |
| 2026-05-08 01:02 | 50.77561 | 3.60078 | 37094 ft | 460 kts | 121° |
| 2026-05-08 01:02 | 50.74525 | 3.68926 | 37098 ft | 460 kts | 121° |
| 2026-05-08 01:03 | 50.71472 | 3.77812 | 37087 ft | 460 kts | 121° |
| 2026-05-08 01:03 | 50.68405 | 3.86692 | 37090 ft | 460 kts | 121° |
| 2026-05-08 01:04 | 50.65329 | 3.95557 | 37100 ft | 461 kts | 121° |
| 2026-05-08 01:04 | 50.62243 | 4.04397 | 37100 ft | 461 kts | 121° |
| 2026-05-08 01:05 | 50.59163 | 4.13192 | 37104 ft | 461 kts | 121° |
| 2026-05-08 01:05 | 50.56050 | 4.22020 | 37086 ft | 461 kts | 121° |
| 2026-05-08 01:06 | 50.52932 | 4.30824 | 37091 ft | 461 kts | 122° |
| 2026-05-08 01:06 | 50.49808 | 4.39617 | 37091 ft | 461 kts | 122° |
| 2026-05-08 01:07 | 50.46676 | 4.48419 | 37093 ft | 461 kts | 122° |
| 2026-05-08 01:07 | 50.43559 | 4.57149 | 37103 ft | 461 kts | 122° |
| 2026-05-08 01:08 | 50.40411 | 4.65929 | 37095 ft | 461 kts | 122° |
| 2026-05-08 01:08 | 50.37259 | 4.74683 | 37104 ft | 461 kts | 122° |
| 2026-05-08 01:09 | 50.34109 | 4.83397 | 37106 ft | 461 kts | 122° |
| 2026-05-08 01:09 | 50.30942 | 4.92144 | 37091 ft | 461 kts | 122° |
| 2026-05-08 01:10 | 50.27772 | 5.00877 | 37107 ft | 461 kts | 122° |
| 2026-05-08 01:10 | 50.24613 | 5.09559 | 37092 ft | 462 kts | 122° |
| 2026-05-08 01:11 | 50.21416 | 5.18280 | 37102 ft | 462 kts | 122° |
| 2026-05-08 01:11 | 50.18209 | 5.26997 | 37104 ft | 462 kts | 122° |
| 2026-05-08 01:12 | 50.15024 | 5.35642 | 37102 ft | 462 kts | 122° |
| 2026-05-08 01:12 | 50.11800 | 5.44331 | 37105 ft | 462 kts | 122° |
| 2026-05-08 01:13 | 50.08564 | 5.52982 | 37095 ft | 462 kts | 122° |
| 2026-05-08 01:13 | 50.05318 | 5.61643 | 37087 ft | 463 kts | 122° |
| 2026-05-08 01:14 | 50.02071 | 5.70294 | 37090 ft | 463 kts | 122° |
| 2026-05-08 01:14 | 49.98813 | 5.78948 | 37091 ft | 463 kts | 123° |
| 2026-05-08 01:15 | 49.95573 | 5.87522 | 37087 ft | 463 kts | 123° |
| 2026-05-08 01:15 | 49.92293 | 5.96159 | 37084 ft | 463 kts | 123° |
| 2026-05-08 01:16 | 49.89011 | 6.04777 | 37080 ft | 464 kts | 123° |
| 2026-05-08 01:16 | 49.85726 | 6.13388 | 37082 ft | 464 kts | 123° |
| 2026-05-08 01:17 | 49.82454 | 6.21934 | 37085 ft | 464 kts | 123° |
| 2026-05-08 01:17 | 49.79148 | 6.30522 | 37074 ft | 464 kts | 123° |
| 2026-05-08 01:18 | 49.75834 | 6.39101 | 37071 ft | 464 kts | 123° |
| 2026-05-08 01:18 | 49.72536 | 6.47625 | 37072 ft | 464 kts | 123° |
| 2026-05-08 01:19 | 49.69212 | 6.56183 | 37078 ft | 464 kts | 123° |
| 2026-05-08 01:19 | 49.65881 | 6.64730 | 37081 ft | 464 kts | 123° |
| 2026-05-08 01:20 | 49.62544 | 6.73285 | 37084 ft | 464 kts | 123° |
| 2026-05-08 01:20 | 49.59200 | 6.81823 | 37081 ft | 465 kts | 123° |
| 2026-05-08 01:21 | 49.55863 | 6.90304 | 37083 ft | 465 kts | 123° |
| 2026-05-08 01:21 | 49.52497 | 6.98832 | 37071 ft | 465 kts | 123° |
| 2026-05-08 01:22 | 49.49125 | 7.07347 | 37080 ft | 466 kts | 123° |
| 2026-05-08 01:22 | 49.45768 | 7.15801 | 37086 ft | 466 kts | 124° |
| 2026-05-08 01:23 | 49.42379 | 7.24301 | 37088 ft | 466 kts | 124° |
| 2026-05-08 01:23 | 49.38979 | 7.32806 | 37091 ft | 467 kts | 124° |
| 2026-05-08 01:24 | 49.35589 | 7.41262 | 37089 ft | 467 kts | 124° |
| 2026-05-08 01:24 | 49.32176 | 7.49755 | 37095 ft | 467 kts | 124° |
| 2026-05-08 01:25 | 49.28753 | 7.58222 | 37085 ft | 467 kts | 124° |
| 2026-05-08 01:25 | 49.25322 | 7.66687 | 37072 ft | 468 kts | 124° |
| 2026-05-08 01:26 | 49.21898 | 7.75112 | 37076 ft | 468 kts | 124° |
| 2026-05-08 01:26 | 49.18446 | 7.83577 | 37082 ft | 468 kts | 124° |
| 2026-05-08 01:27 | 49.15000 | 7.92022 | 37087 ft | 468 kts | 124° |
| 2026-05-08 01:27 | 49.11562 | 8.00409 | 37075 ft | 469 kts | 124° |
| 2026-05-08 01:28 | 49.08094 | 8.08830 | 37083 ft | 469 kts | 124° |
| 2026-05-08 01:28 | 49.04635 | 8.17218 | 37086 ft | 469 kts | 124° |
| 2026-05-08 01:29 | 49.01147 | 8.25639 | 37084 ft | 469 kts | 124° |
| 2026-05-08 01:29 | 48.97131 | 8.33385 | 37082 ft | 463 kts | 140° |
| 2026-05-08 01:30 | 48.92495 | 8.40209 | 37082 ft | 465 kts | 136° |
| 2026-05-08 01:30 | 48.88089 | 8.47345 | 37087 ft | 465 kts | 136° |
| 2026-05-08 01:31 | 48.83653 | 8.54520 | 37092 ft | 466 kts | 136° |
| 2026-05-08 01:31 | 48.79196 | 8.61667 | 37097 ft | 466 kts | 136° |
| 2026-05-08 01:32 | 48.74729 | 8.68791 | 37079 ft | 466 kts | 136° |
| 2026-05-08 01:32 | 48.70259 | 8.75917 | 37080 ft | 466 kts | 136° |
| 2026-05-08 01:33 | 48.65786 | 8.83027 | 37087 ft | 466 kts | 136° |
| 2026-05-08 01:33 | 48.61378 | 8.90011 | 37091 ft | 467 kts | 136° |
| 2026-05-08 01:34 | 48.56846 | 8.97178 | 37095 ft | 467 kts | 137° |
| 2026-05-08 01:34 | 48.52347 | 9.04267 | 37097 ft | 467 kts | 137° |
| 2026-05-08 01:35 | 48.47846 | 9.11333 | 37094 ft | 467 kts | 137° |
| 2026-05-08 01:35 | 48.43366 | 9.18345 | 37096 ft | 467 kts | 137° |
| 2026-05-08 01:36 | 48.38858 | 9.25396 | 37096 ft | 467 kts | 137° |
| 2026-05-08 01:36 | 48.35075 | 9.31297 | 37096 ft | 467 kts | 137° |
| 2026-05-08 01:37 | 48.30586 | 9.38275 | 37095 ft | 467 kts | 137° |
| 2026-05-08 01:37 | 48.26066 | 9.45276 | 37070 ft | 466 kts | 139° |
| 2026-05-08 01:38 | 48.21137 | 9.51549 | 37064 ft | 463 kts | 144° |
| 2026-05-08 01:38 | 48.16176 | 9.57649 | 37066 ft | 463 kts | 144° |
| 2026-05-08 01:39 | 48.11193 | 9.63775 | 37070 ft | 463 kts | 144° |
| 2026-05-08 01:39 | 48.06203 | 9.69881 | 37074 ft | 464 kts | 144° |
| 2026-05-08 01:40 | 48.01197 | 9.75990 | 37068 ft | 464 kts | 144° |
| 2026-05-08 01:40 | 47.96224 | 9.82042 | 37073 ft | 463 kts | 144° |
| 2026-05-08 01:41 | 47.91226 | 9.88109 | 37084 ft | 464 kts | 144° |
| 2026-05-08 01:41 | 47.86209 | 9.94188 | 37089 ft | 464 kts | 144° |
| 2026-05-08 01:42 | 47.81196 | 10.00245 | 37081 ft | 464 kts | 144° |
| 2026-05-08 01:42 | 47.76213 | 10.06265 | 37071 ft | 464 kts | 144° |
| 2026-05-08 01:43 | 47.71193 | 10.12296 | 37077 ft | 463 kts | 144° |
| 2026-05-08 01:43 | 47.66174 | 10.18320 | 37080 ft | 463 kts | 144° |
| 2026-05-08 01:44 | 47.61191 | 10.24305 | 37079 ft | 463 kts | 144° |
| 2026-05-08 01:44 | 47.56160 | 10.30281 | 37081 ft | 463 kts | 147° |
| 2026-05-08 01:45 | 47.50819 | 10.35537 | 37076 ft | 460 kts | 150° |
| 2026-05-08 01:45 | 47.45468 | 10.40725 | 37074 ft | 459 kts | 150° |
| 2026-05-08 01:46 | 47.40117 | 10.45909 | 37071 ft | 460 kts | 150° |
| 2026-05-08 01:46 | 47.34805 | 10.51057 | 37074 ft | 460 kts | 150° |
| 2026-05-08 01:47 | 47.29449 | 10.56223 | 37063 ft | 460 kts | 150° |
| 2026-05-08 01:47 | 47.24140 | 10.61524 | 37072 ft | 461 kts | 148° |
| 2026-05-08 01:48 | 47.16343 | 10.69870 | 37085 ft | 462 kts | 148° |
| 2026-05-08 01:48 | 47.11171 | 10.75355 | 37088 ft | 461 kts | 148° |
| 2026-05-08 01:49 | 47.05908 | 10.80837 | 37067 ft | 460 kts | 148° |
| 2026-05-08 01:49 | 47.00708 | 10.86216 | 37071 ft | 460 kts | 148° |
| 2026-05-08 01:50 | 46.95466 | 10.91638 | 37089 ft | 461 kts | 148° |
| 2026-05-08 01:50 | 46.90223 | 10.97071 | 37095 ft | 461 kts | 148° |
| 2026-05-08 01:51 | 46.84978 | 11.02500 | 37102 ft | 461 kts | 149° |
| 2026-05-08 01:51 | 46.80019 | 11.08508 | 37094 ft | 467 kts | 135° |
| 2026-05-08 01:52 | 46.75812 | 11.15672 | 37108 ft | 468 kts | 134° |
| 2026-05-08 01:52 | 46.71568 | 11.22874 | 37105 ft | 468 kts | 134° |
| 2026-05-08 01:53 | 46.67308 | 11.30064 | 37096 ft | 468 kts | 135° |
| 2026-05-08 01:53 | 46.63042 | 11.37232 | 37104 ft | 468 kts | 135° |
| 2026-05-08 01:54 | 46.58797 | 11.44346 | 37084 ft | 468 kts | 135° |
| 2026-05-08 01:54 | 46.54521 | 11.51518 | 37086 ft | 469 kts | 135° |
| 2026-05-08 01:55 | 46.50241 | 11.58671 | 37086 ft | 469 kts | 135° |
| 2026-05-08 01:55 | 46.45951 | 11.65817 | 37088 ft | 469 kts | 135° |
| 2026-05-08 01:56 | 46.41683 | 11.72914 | 37092 ft | 468 kts | 135° |
| 2026-05-08 01:56 | 46.37397 | 11.80026 | 37087 ft | 468 kts | 135° |
| 2026-05-08 01:57 | 46.33099 | 11.87131 | 37077 ft | 468 kts | 136° |
| 2026-05-08 01:57 | 46.28792 | 11.94223 | 37083 ft | 468 kts | 135° |
| 2026-05-08 01:58 | 46.24513 | 12.01265 | 37087 ft | 469 kts | 136° |
| 2026-05-08 01:58 | 46.20205 | 12.08347 | 37075 ft | 469 kts | 136° |
| 2026-05-08 01:59 | 46.15896 | 12.15412 | 37080 ft | 469 kts | 136° |
| 2026-05-08 01:59 | 46.11569 | 12.22470 | 37084 ft | 469 kts | 136° |
| 2026-05-08 02:00 | 46.07238 | 12.29512 | 37088 ft | 470 kts | 136° |
| 2026-05-08 02:00 | 46.02895 | 12.36548 | 37086 ft | 469 kts | 136° |
| 2026-05-08 02:01 | 45.98576 | 12.43546 | 37079 ft | 470 kts | 136° |
| 2026-05-08 02:01 | 45.94240 | 12.50567 | 37074 ft | 470 kts | 136° |
| 2026-05-08 02:02 | 45.89880 | 12.57587 | 37079 ft | 470 kts | 136° |
| 2026-05-08 02:02 | 45.85517 | 12.64594 | 37055 ft | 470 kts | 136° |
| 2026-05-08 02:03 | 45.81154 | 12.71600 | 37032 ft | 471 kts | 136° |
| 2026-05-08 02:03 | 45.76801 | 12.78562 | 37040 ft | 472 kts | 136° |
| 2026-05-08 02:04 | 45.72410 | 12.85566 | 37051 ft | 472 kts | 136° |
| 2026-05-08 02:04 | 45.68016 | 12.92557 | 37068 ft | 473 kts | 136° |
| 2026-05-08 02:05 | 45.63834 | 12.99799 | 37072 ft | 475 kts | 132° |
| 2026-05-08 02:05 | 45.59816 | 13.07331 | 37042 ft | 477 kts | 132° |
| 2026-05-08 02:06 | 45.55763 | 13.14858 | 37043 ft | 477 kts | 133° |
| 2026-05-08 02:06 | 45.51633 | 13.22304 | 37053 ft | 478 kts | 133° |
| 2026-05-08 02:07 | 45.47504 | 13.29658 | 37059 ft | 478 kts | 133° |
| 2026-05-08 02:07 | 45.43348 | 13.37074 | 37049 ft | 479 kts | 133° |
| 2026-05-08 02:08 | 45.39197 | 13.44497 | 37057 ft | 479 kts | 133° |
| 2026-05-08 02:08 | 45.35037 | 13.51923 | 37045 ft | 480 kts | 134° |
| 2026-05-08 02:09 | 45.30868 | 13.59330 | 37052 ft | 480 kts | 134° |
| 2026-05-08 02:09 | 45.26689 | 13.66733 | 37055 ft | 480 kts | 134° |
| 2026-05-08 02:10 | 45.22532 | 13.74087 | 37067 ft | 480 kts | 134° |
| 2026-05-08 02:10 | 45.18344 | 13.81477 | 37071 ft | 480 kts | 134° |
| 2026-05-08 02:11 | 45.14155 | 13.88856 | 37069 ft | 480 kts | 134° |
| 2026-05-08 02:11 | 45.09957 | 13.96224 | 37047 ft | 480 kts | 135° |
| 2026-05-08 02:12 | 45.05757 | 14.03555 | 37057 ft | 479 kts | 135° |
| 2026-05-08 02:12 | 45.01576 | 14.10831 | 37067 ft | 479 kts | 135° |
| 2026-05-08 02:13 | 44.97387 | 14.18130 | 37069 ft | 479 kts | 135° |
| 2026-05-08 02:13 | 44.93232 | 14.25367 | 37039 ft | 478 kts | 135° |
| 2026-05-08 02:14 | 44.89032 | 14.32642 | 37060 ft | 478 kts | 135° |
| 2026-05-08 02:14 | 44.84823 | 14.39908 | 37053 ft | 477 kts | 135° |
| 2026-05-08 02:15 | 44.80617 | 14.47148 | 37063 ft | 476 kts | 135° |
| 2026-05-08 02:15 | 44.76418 | 14.54366 | 37067 ft | 475 kts | 135° |
| 2026-05-08 02:16 | 44.72251 | 14.61508 | 37055 ft | 475 kts | 135° |
| 2026-05-08 02:16 | 44.68059 | 14.68685 | 37064 ft | 475 kts | 135° |
| 2026-05-08 02:17 | 44.63856 | 14.75865 | 37062 ft | 475 kts | 135° |
| 2026-05-08 02:17 | 44.59649 | 14.83012 | 37054 ft | 474 kts | 135° |
| 2026-05-08 02:18 | 44.55439 | 14.90148 | 37060 ft | 474 kts | 135° |